Time;durP1;ratioP1;P1;durP2;ratioP2;P2;SDS_P1;SDS_P2;PMS_P1;PMS_P2;Temp;Humidity;BMP_temperature;BMP_pressure;BME280_temperature;BME280_humidity;BME280_pressure;Samples;Min_cycle;Max_cycle;Signal;HPM_P1;HPM_P2
2022/01/10 00:15:49;;;;;;;41.80;17.93;;;;;;;;;;4917194;29;20288;-85
2022/01/10 00:18:15;;;;;;;40.40;18.10;;;;;;;;;;4900521;29;20684;-85
2022/01/10 00:20:42;;;;;;;32.20;16.10;;;;;;;;;;4917606;29;20296;-84
2022/01/10 01:25:02;;;;;;;23.93;11.53;;;;;;;;;;4920107;29;20280;-85
2022/01/10 01:27:28;;;;;;;25.00;12.60;;;;;;;;;;4919923;29;20188;-85
2022/01/10 01:29:54;;;;;;;44.83;19.33;;;;;;;;;;4919932;29;20219;-85
2022/01/10 01:35:47;;;;;;;23.83;11.80;;;-0.70;99.90;;;;;;4919799;29;20624;-84
2022/01/10 01:51:54;;;;;;;30.77;14.27;;;;;;;;;;4918956;29;20190;-84
2022/01/10 01:54:20;;;;;;;25.97;12.77;;;;;;;;;;4903019;29;20212;-84
2022/01/10 01:56:47;;;;;;;23.00;11.13;;;-0.70;99.90;;;;;;4920096;29;20196;-84
2022/01/10 01:59:13;;;;;;;35.50;15.20;;;;;;;;;;4919406;29;20235;-84
2022/01/10 02:01:39;;;;;;;34.03;16.03;;;;;;;;;;4902566;29;20215;-84
2022/01/10 03:10:23;;;;;;;19.97;10.57;;;-0.60;99.90;;;;;;4917982;29;20177;-85
2022/01/10 03:12:50;;;;;;;35.30;15.00;;;;;;;;;;4901245;29;20226;-85
2022/01/10 03:15:17;;;;;;;31.57;15.17;;;;;;;;;;4917780;29;20185;-84
2022/01/10 03:17:43;;;;;;;31.03;13.20;;;;;;;;;;4900965;29;20193;-84
2022/01/10 03:20:10;;;;;;;30.77;13.27;;;-0.60;99.90;;;;;;4901561;29;20549;-85
2022/01/10 03:22:36;;;;;;;28.87;12.97;;;;;;;;;;4918356;29;20199;-85
2022/01/10 03:25:04;;;;;;;36.97;15.17;;;-0.70;99.90;;;;;;4901508;29;20195;-84
2022/01/10 03:27:35;;;;;;;39.73;15.93;;;-0.70;99.90;;;;;;4918176;29;20187;-84
2022/01/10 03:33:58;;;;;;;19.70;11.07;;;-0.70;99.90;;;;;;4917646;29;20236;-83
2022/01/10 03:39:57;;;;;;;26.60;12.40;;;-0.80;99.90;;;;;;4917526;29;20222;-85
2022/01/10 03:49:11;;;;;;;24.40;12.80;;;;;;;;;;4917415;29;20199;-85
2022/01/10 03:51:37;;;;;;;30.40;13.33;;;;;;;;;;4900591;29;20210;-85
2022/01/10 03:54:03;;;;;;;27.97;13.47;;;;;;;;;;4900557;29;20626;-85
2022/01/10 03:56:30;;;;;;;21.23;11.17;;;-0.90;99.90;;;;;;4917817;29;20185;-84
2022/01/10 03:58:56;;;;;;;19.33;10.13;;;;;;;;;;4917417;29;20228;-84
2022/01/10 04:01:22;;;;;;;22.70;10.73;;;;;;;;;;4917466;29;20266;-85
2022/01/10 04:03:48;;;;;;;17.83;8.97;;;;;;;;;;4917177;29;20621;-85
2022/01/10 04:06:14;;;;;;;20.03;9.40;;;;;;;;;;4917068;29;20232;-85
2022/01/10 04:08:40;;;;;;;22.53;11.53;;;;;;;;;;4917422;29;20227;-85
2022/01/10 04:11:06;;;;;;;20.03;10.17;;;;;;;;;;4917157;29;20322;-85
2022/01/10 04:13:32;;;;;;;22.17;12.00;;;;;;;;;;4901326;29;20226;-85
2022/01/10 04:15:58;;;;;;;22.73;10.07;;;;;;;;;;4920932;29;20186;-85
2022/01/10 04:18:24;;;;;;;16.77;9.17;;;;;;;;;;4921133;29;20193;-86
2022/01/10 04:20:51;;;;;;;17.87;9.93;;;;;;;;;;4920703;29;20182;-84
2022/01/10 04:23:17;;;;;;;19.63;10.20;;;-1.00;99.90;;;;;;4904327;29;20566;-84
2022/01/10 04:25:43;;;;;;;15.90;9.27;;;;;;;;;;4904440;29;20186;-86
2022/01/10 04:28:10;;;;;;;21.57;11.23;;;;;;;;;;4921068;29;20613;-85
2022/01/10 04:30:36;;;;;;;19.93;10.77;;;;;;;;;;4920628;29;20629;-84
2022/01/10 04:33:02;;;;;;;17.97;10.57;;;;;;;;;;4904027;29;20219;-85
2022/01/10 04:35:29;;;;;;;20.90;10.73;;;-1.00;99.90;;;;;;4920577;29;20217;-85
2022/01/10 04:37:55;;;;;;;15.33;9.30;;;;;;;;;;4920992;29;20211;-85
2022/01/10 04:40:22;;;;;;;14.23;9.23;;;;;;;;;;4903628;29;20195;-85
2022/01/10 04:42:48;;;;;;;16.43;8.43;;;;;;;;;;4920242;29;20239;-85
2022/01/10 04:45:14;;;;;;;15.77;8.73;;;;;;;;;;4903470;29;20198;-85
2022/01/10 04:47:40;;;;;;;17.23;9.63;;;;;;;;;;4903506;29;20649;-85
2022/01/10 04:52:49;;;;;;;16.40;9.80;;;-1.00;99.90;;;;;;4920483;29;20635;-85
2022/01/10 04:55:16;;;;;;;15.53;8.37;;;;;;;;;;4887600;29;20213;-86
2022/01/10 04:57:42;;;;;;;11.83;7.77;;;;;;;;;;4903402;29;20228;-85
2022/01/10 05:00:11;;;;;;;17.10;8.80;;;-1.30;99.90;;;;;;4903655;29;20195;-85
2022/01/10 05:02:37;;;;;;;13.40;7.93;;;;;;;;;;4903368;29;20260;-84
2022/01/10 05:05:03;;;;;;;15.60;8.77;;;-1.20;99.90;;;;;;4891294;29;20301;-84
2022/01/10 05:07:29;;;;;;;14.97;7.97;;;;;;;;;;4922258;29;20188;-84
2022/01/10 05:09:57;;;;;;;11.97;7.87;;;;;;;;;;4921864;29;20185;-87
2022/01/10 05:12:25;;;;;;;14.50;8.87;;;;;;;;;;4922060;29;20231;-86
2022/01/10 05:14:51;;;;;;;26.63;12.80;;;;;;;;;;4921872;29;20193;-85
2022/01/10 05:17:19;;;;;;;54.23;21.07;;;;;;;;;;4922021;29;20279;-85
2022/01/10 05:19:45;;;;;;;106.40;46.73;;;;;;;;;;4939087;29;20538;-84
2022/01/10 05:22:11;;;;;;;33.87;18.07;;;;;;;;;;4938682;29;20231;-84
2022/01/10 05:24:37;;;;;;;31.50;14.37;;;;;;;;;;4939260;29;20630;-85
2022/01/10 05:27:03;;;;;;;25.07;12.40;;;;;;;;;;4921063;29;20283;-85
2022/01/10 05:29:29;;;;;;;14.30;8.30;;;;;;;;;;4939373;29;20177;-84
2022/01/10 05:31:55;;;;;;;20.07;9.33;;;;;;;;;;4938856;29;20202;-85
2022/01/10 05:34:21;;;;;;;10.33;7.73;;;;;;;;;;4938688;29;20182;-85
2022/01/10 05:50:53;;;;;;;15.70;8.97;;;-1.20;99.90;;;;;;4938546;29;20542;-83
2022/01/10 05:57:16;;;;;;;15.90;8.33;;;-1.10;99.90;;;;;;4938213;29;20171;-83
2022/01/10 05:59:42;;;;;;;14.73;8.00;;;;;;;;;;4938552;29;20187;-83
2022/01/10 06:02:08;;;;;;;16.40;9.13;;;;;;;;;;4930342;29;20224;-83
2022/01/10 06:04:48;;;;;;;15.10;9.00;;;-1.10;99.90;;;;;;4919569;29;20184;-82
2022/01/10 06:10:37;;;;;;;20.80;9.03;;;;;;;;;;4932042;29;20197;-81
2022/01/10 06:13:03;;;;;;;19.03;9.73;;;;;;;;;;4925157;29;20188;-81
2022/01/10 06:15:29;;;;;;;27.27;11.57;;;;;;;;;;4937580;29;20595;-82
2022/01/10 06:17:55;;;;;;;25.90;11.20;;;;;;;;;;4920241;29;20238;-84
2022/01/10 06:20:21;;;;;;;52.27;17.57;;;;;;;;;;4920166;29;20192;-84
2022/01/10 06:22:47;;;;;;;64.97;24.57;;;;;;;;;;4904392;29;20218;-82
2022/01/10 06:25:20;;;;;;;70.80;25.17;;;-1.10;99.90;;;;;;4936811;29;20248;-81
2022/01/10 06:27:46;;;;;;;46.10;18.30;;;;;;;;;;4926103;29;20189;-82
2022/01/10 06:30:12;;;;;;;32.17;14.27;;;;;;;;;;4904047;29;20210;-82
2022/01/10 06:32:38;;;;;;;35.23;15.27;;;;;;;;;;4912218;29;20658;-80
2022/01/10 06:35:04;;;;;;;36.73;15.67;;;;;;;;;;4936600;29;20206;-83
2022/01/10 06:37:30;;;;;;;53.63;18.77;;;;;;;;;;4918998;29;20678;-81
2022/01/10 06:39:57;;;;;;;29.13;13.37;;;;;;;;;;4903814;29;20211;-83
2022/01/10 06:42:23;;;;;;;42.07;16.43;;;;;;;;;;4936293;29;20211;-83
2022/01/10 06:44:49;;;;;;;44.43;17.47;;;;;;;;;;4936384;29;20242;-82
2022/01/10 06:47:15;;;;;;;124.17;41.70;;;;;;;;;;4903621;29;20200;-81
2022/01/10 06:49:41;;;;;;;122.33;41.70;;;;;;;;;;4936659;29;20195;-83
2022/01/10 06:52:07;;;;;;;75.10;24.73;;;;;;;;;;4919944;29;20326;-82
2022/01/10 06:54:33;;;;;;;50.03;20.13;;;;;;;;;;4914445;29;20193;-82
2022/01/10 06:56:59;;;;;;;51.70;19.57;;;;;;;;;;4926429;29;20203;-81
2022/01/10 06:59:33;;;;;;;58.50;17.57;;;;;;;;;;5125149;27;20539;-83
2022/01/10 07:02:00;;;;;;;35.07;15.47;;;;;;;;;;5131092;28;20666;-83
2022/01/10 07:04:27;;;;;;;38.73;14.27;;;-1.00;99.90;;;;;;5113025;28;20192;-85
2022/01/10 07:06:53;;;;;;;41.90;16.10;;;;;;;;;;5113198;28;20234;-85
2022/01/10 07:09:19;;;;;;;72.37;22.00;;;;;;;;;;5112872;28;20192;-84
2022/01/10 07:11:45;;;;;;;68.33;25.93;;;;;;;;;;5126576;28;20178;-83
2022/01/10 07:14:13;;;;;;;63.80;20.03;;;;;;;;;;5128643;28;20234;-84
2022/01/10 07:16:39;;;;;;;69.30;22.87;;;;;;;;;;5127214;28;20186;-84
2022/01/10 07:19:06;;;;;;;70.07;23.00;;;-0.90;99.90;;;;;;5120197;28;20206;-83
2022/01/10 07:21:32;;;;;;;57.77;20.23;;;;;;;;;;5091664;28;20181;-84
2022/01/10 07:23:58;;;;;;;89.53;27.43;;;;;;;;;;5092137;28;20181;-84
2022/01/10 07:26:25;;;;;;;41.63;17.20;;;;;;;;;;5107885;28;20186;-82
2022/01/10 07:28:51;;;;;;;50.50;18.40;;;;;;;;;;5131851;28;20264;-84
2022/01/10 07:31:17;;;;;;;151.43;46.93;;;;;;;;;;5108925;28;20191;-84
2022/01/10 07:33:43;;;;;;;96.10;30.70;;;;;;;;;;5101314;28;20192;-84
2022/01/10 07:36:09;;;;;;;59.77;18.17;;;;;;;;;;5102039;28;20191;-84
2022/01/10 07:38:35;;;;;;;55.10;17.33;;;;;;;;;;5103289;28;20209;-84
2022/01/10 07:41:06;;;;;;;48.77;16.60;;;-1.00;99.90;;;;;;5119788;28;20190;-84
2022/01/10 07:43:32;;;;;;;63.63;20.13;;;-0.80;99.90;;;;;;5121977;28;20187;-83
2022/01/10 07:45:58;;;;;;;41.77;15.93;;;;;;;;;;5120586;28;20208;-85
2022/01/10 07:48:27;;;;;;;34.47;14.77;;;-0.80;99.90;;;;;;5104267;28;20194;-83
2022/01/10 07:50:53;;;;;;;62.00;20.97;;;;;;;;;;5121716;28;20551;-84
2022/01/10 07:53:19;;;;;;;39.80;15.83;;;;;;;;;;5106775;28;20196;-83
2022/01/10 07:55:45;;;;;;;26.77;11.63;;;;;;;;;;5120448;28;20199;-82
2022/01/10 07:58:11;;;;;;;30.43;12.37;;;;;;;;;;5097295;28;20239;-84
2022/01/10 08:00:37;;;;;;;48.23;16.67;;;;;;;;;;5123943;28;20676;-84
2022/01/10 08:03:03;;;;;;;33.47;14.07;;;;;;;;;;5110890;28;20642;-86
2022/01/10 08:05:29;;;;;;;30.13;13.43;;;;;;;;;;5098304;28;20280;-84
2022/01/10 08:07:55;;;;;;;18.80;9.43;;;;;;;;;;5090973;28;20220;-84
2022/01/10 08:10:21;;;;;;;18.73;10.00;;;;;;;;;;5089635;28;20253;-83
2022/01/10 08:12:47;;;;;;;22.37;10.90;;;;;;;;;;5095141;28;20194;-82
2022/01/10 08:15:14;;;;;;;36.20;14.00;;;;;;;;;;5106395;28;20187;-83
2022/01/10 08:17:41;;;;;;;27.70;12.23;;;-0.90;99.90;;;;;;5111855;28;20694;-83
2022/01/10 08:20:07;;;;;;;32.43;15.17;;;-0.80;99.90;;;;;;5097045;28;20190;-84
2022/01/10 08:22:33;;;;;;;28.53;12.30;;;;;;;;;;5079673;28;20181;-83
2022/01/10 08:24:59;;;;;;;34.27;15.17;;;;;;;;;;5097984;28;20190;-83
2022/01/10 08:27:25;;;;;;;27.20;11.50;;;;;;;;;;5096211;28;20186;-83
2022/01/10 08:29:51;;;;;;;27.33;11.23;;;;;;;;;;5090539;28;20552;-84
2022/01/10 08:32:17;;;;;;;29.60;13.27;;;;;;;;;;5111062;28;20193;-84
2022/01/10 08:34:44;;;;;;;43.13;18.90;;;;;;;;;;5092747;28;20188;-84
2022/01/10 08:37:11;;;;;;;25.97;12.03;;;-1.00;99.90;;;;;;5088549;28;20194;-84
2022/01/10 08:39:37;;;;;;;28.00;11.90;;;;;;;;;;5106416;28;20688;-84
2022/01/10 08:42:03;;;;;;;27.97;10.73;;;;;;;;;;5113438;28;20825;-85
2022/01/10 08:44:29;;;;;;;27.50;12.03;;;;;;;;;;5092016;28;20699;-84
2022/01/10 08:46:56;;;;;;;21.70;10.57;;;;;;;;;;5112023;28;20183;-83
2022/01/10 08:49:22;;;;;;;33.07;13.00;;;-0.80;99.90;;;;;;5097329;28;20198;-83
2022/01/10 08:51:54;;;;;;;40.57;13.50;;;;;;;;;;5114522;28;20260;-84
2022/01/10 08:54:23;;;;;;;20.50;9.93;;;-1.10;99.90;;;;;;5084578;28;20285;-84
2022/01/10 08:56:51;;;;;;;23.83;10.63;;;1.70;99.90;;;;;;5089404;28;20547;-83
2022/01/10 08:59:17;;;;;;;22.33;10.63;;;;;;;;;;5076557;28;20240;-83
2022/01/10 09:01:43;;;;;;;21.30;9.60;;;;;;;;;;5103660;28;20214;-84
2022/01/10 09:04:15;;;;;;;17.17;9.73;;;-1.10;99.90;;;;;;5114720;28;20202;-83
2022/01/10 09:06:46;;;;;;;18.97;9.87;;;-1.10;99.90;;;;;;5097250;28;20175;-83
2022/01/10 09:09:12;;;;;;;28.87;11.73;;;;;;;;;;5085364;28;20247;-84
2022/01/10 09:11:38;;;;;;;22.30;11.97;;;-1.10;99.90;;;;;;5076247;28;20646;-83
2022/01/10 09:14:05;;;;;;;19.33;10.47;;;-1.10;99.90;;;;;;5076951;28;20194;-83
2022/01/10 09:16:31;;;;;;;65.00;23.70;;;;;;;;;;5076769;28;20202;-83
2022/01/10 09:18:57;;;;;;;136.07;43.60;;;;;;;;;;5102758;28;20224;-83
2022/01/10 09:21:24;;;;;;;99.50;35.30;;;;;;;;;;5104097;28;20185;-85
2022/01/10 09:23:50;;;;;;;115.03;37.40;;;;;;;;;;5104042;28;20259;-84
2022/01/10 09:26:16;;;;;;;65.83;23.17;;;;;;;;;;5104217;28;20636;-83
2022/01/10 09:28:43;;;;;;;55.00;20.07;;;;;;;;;;5111123;28;20184;-84
2022/01/10 09:31:10;;;;;;;32.43;13.63;;;-1.20;99.90;;;;;;5104674;28;20184;-85
2022/01/10 09:33:36;;;;;;;63.53;22.43;;;;;;;;;;5078822;28;20652;-83
2022/01/10 09:36:02;;;;;;;58.17;19.83;;;;;;;;;;5094440;28;20266;-83
2022/01/10 09:38:28;;;;;;;43.17;18.27;;;;;;;;;;5076505;28;20210;-84
2022/01/10 09:40:54;;;;;;;42.57;15.93;;;;;;;;;;5094598;28;20189;-83
2022/01/10 09:43:21;;;;;;;51.13;16.93;;;;;;;;;;5094532;28;20267;-83
2022/01/10 09:45:48;;;;;;;55.43;19.80;;;-1.40;99.90;;;;;;5094292;28;20299;-83
2022/01/10 09:48:14;;;;;;;34.83;15.53;;;;;;;;;;5094515;28;20203;-83
2022/01/10 09:50:40;;;;;;;35.90;16.30;;;;;;;;;;5094027;28;20185;-83
2022/01/10 09:53:06;;;;;;;34.80;14.13;;;;;;;;;;5094308;28;20178;-83
2022/01/10 09:55:33;;;;;;;28.17;14.10;;;;;;;;;;5075941;28;20189;-84
2022/01/10 09:58:00;;;;;;;28.60;10.90;;;-1.40;99.90;;;;;;5076006;28;20240;-83
2022/01/10 10:00:26;;;;;;;26.07;11.73;;;;;;;;;;5076520;28;20201;-83
2022/01/10 10:02:52;;;;;;;25.50;10.87;;;;;;;;;;5075776;28;20683;-83
2022/01/10 10:05:19;;;;;;;20.83;11.03;;;;;;;;;;5094143;28;20182;-83
2022/01/10 10:07:45;;;;;;;21.30;10.87;;;;;;;;;;5094023;28;20209;-83
2022/01/10 10:10:12;;;;;;;25.73;12.23;;;;;;;;;;5075914;28;20539;-84
2022/01/10 10:12:49;;;;;;;20.07;8.63;;;-1.40;99.90;;;;;;5075680;28;20546;-84
2022/01/10 10:15:18;;;;;;;21.63;10.27;;;-1.50;99.90;;;;;;5075740;28;20189;-83
2022/01/10 10:17:45;;;;;;;28.80;13.20;;;-1.50;99.90;;;;;;5075595;28;20596;-83
2022/01/10 10:20:15;;;;;;;26.30;11.87;;;-1.50;99.90;;;;;;5094019;28;20619;-83
2022/01/10 10:22:46;;;;;;;19.73;10.33;;;-1.80;99.90;;;;;;5094071;28;20249;-84
2022/01/10 10:25:13;;;;;;;57.40;20.47;;;-1.40;99.90;;;;;;5094334;28;20185;-83
2022/01/10 10:27:42;;;;;;;25.17;11.10;;;-1.40;99.90;;;;;;5075639;28;20185;-83
2022/01/10 10:30:29;;;;;;;40.33;17.63;;;-1.50;99.90;;;;;;5075415;28;20630;-83
2022/01/10 10:33:11;;;;;;;20.60;9.60;;;-1.40;99.90;;;;;;5075294;28;20276;-83
2022/01/10 10:35:37;;;;;;;20.87;10.13;;;;;;;;;;5076221;28;20193;-84
2022/01/10 10:38:03;;;;;;;37.00;14.20;;;;;;;;;;5074244;28;20213;-83
2022/01/10 10:40:30;;;;;;;41.13;17.03;;;;;;;;;;5098182;28;20202;-83
2022/01/10 10:42:59;;;;;;;44.40;18.47;;;-1.30;99.90;;;;;;5083908;28;20232;-84
2022/01/10 10:45:26;;;;;;;52.40;19.97;;;-1.30;99.90;;;;;;5078693;28;20187;-84
2022/01/10 10:47:52;;;;;;;48.77;20.90;;;;;;;;;;5102693;28;20218;-83
2022/01/10 10:50:18;;;;;;;41.97;19.53;;;;;;;;;;5103845;28;20207;-84
2022/01/10 10:52:44;;;;;;;28.63;12.97;;;;;;;;;;5085352;28;20180;-84
2022/01/10 10:55:14;;;;;;;28.97;13.63;;;-1.50;99.90;;;;;;5073872;28;20185;-84
2022/01/10 10:57:42;;;;;;;38.17;15.70;;;-1.20;99.90;;;;;;5078799;28;20288;-89
2022/01/10 11:00:12;;;;;;;45.40;15.63;;;-1.40;99.90;;;;;;5061660;28;20185;-83
2022/01/10 11:02:38;;;;;;;23.67;11.30;;;;;;;;;;5061388;28;20576;-86
2022/01/10 11:05:06;;;;;;;34.87;13.70;;;-1.40;99.90;;;;;;5072809;28;20183;-83
2022/01/10 11:07:34;;;;;;;39.47;15.80;;;-1.20;99.90;;;;;;5072910;28;20207;-83
2022/01/10 11:10:04;;;;;;;32.13;14.20;;;-1.20;99.90;;;;;;5060041;28;20188;-84
2022/01/10 11:12:30;;;;;;;29.37;14.23;;;;;;;;;;5065617;28;20216;-83
2022/01/10 11:14:59;;;;;;;22.43;11.60;;;;;;;;;;5074511;28;20235;-83
2022/01/10 11:17:25;;;;;;;29.57;13.97;;;;;;;;;;5087839;28;20188;-82
2022/01/10 11:20:17;;;;;;;62.47;26.63;;;-1.20;99.90;;;;;;5093351;28;20184;-84
2022/01/10 11:22:45;;;;;;;37.80;16.87;;;-1.20;99.90;;;;;;5080962;28;20250;-85
2022/01/10 11:25:27;;;;;;;18.30;9.70;;;-1.40;99.90;;;;;;5059887;28;20230;-84
2022/01/10 11:27:57;;;;;;;26.20;13.80;;;-1.20;99.90;;;;;;5059359;28;20634;-84
2022/01/10 11:30:36;;;;;;;22.43;11.93;;;-1.10;99.90;;;;;;5083844;28;20167;-83
2022/01/10 11:33:07;;;;;;;22.93;10.67;;;;;;;;;;5078615;28;20178;-83
2022/01/10 11:35:39;;;;;;;21.57;10.23;;;-0.90;99.90;;;;;;5073583;28;20599;-84
2022/01/10 11:38:21;;;;;;;16.60;9.53;;;-1.20;99.90;;;;;;5084768;28;20231;-82
2022/01/10 11:41:02;;;;;;;14.83;8.90;;;-1.20;99.90;;;;;;5064596;28;20186;-84
2022/01/10 11:43:32;;;;;;;18.67;9.10;;;-1.20;99.90;;;;;;5072263;28;20184;-84
2022/01/10 11:46:18;;;;;;;22.93;11.27;;;-1.10;99.90;;;;;;5089464;28;20224;-85
2022/01/10 11:48:49;;;;;;;22.90;10.00;;;-1.10;99.90;;;;;;5090268;28;20267;-87
2022/01/10 11:51:18;;;;;;;19.97;8.37;;;-1.10;99.90;;;;;;5077751;28;20185;-83
2022/01/10 11:53:46;;;;;;;21.23;9.60;;;-1.10;99.90;;;;;;5086095;28;20182;-86
2022/01/10 11:56:24;;;;;;;23.13;11.10;;;-1.20;99.90;;;;;;5097240;28;20175;-84
2022/01/10 11:59:11;;;;;;;15.63;7.20;;;-1.00;99.90;;;;;;5098485;28;20274;-83
2022/01/10 12:01:50;;;;;;;17.43;8.63;;;-1.20;99.90;;;;;;5062774;28;20194;-85
2022/01/10 12:04:16;;;;;;;22.13;10.23;;;;;;;;;;5095726;28;20261;-85
2022/01/10 12:06:42;;;;;;;18.70;8.13;;;;;;;;;;5078453;28;20190;-84
2022/01/10 12:09:08;;;;;;;11.07;6.93;;;;;;;;;;5095859;28;20544;-84
2022/01/10 12:11:37;;;;;;;13.43;6.77;;;;;;;;;;5077067;28;20231;-84
2022/01/10 12:14:05;;;;;;;15.33;6.87;;;;;;;;;;5078023;28;20225;-85
2022/01/10 12:16:31;;;;;;;13.63;7.03;;;;;;;;;;5096242;28;20181;-84
2022/01/10 12:18:57;;;;;;;14.80;7.77;;;;;;;;;;5096918;28;20252;-84
2022/01/10 12:21:23;;;;;;;12.37;7.43;;;;;;;;;;5089448;28;20273;-84
2022/01/10 12:23:52;;;;;;;16.93;7.50;;;;;;;;;;5076609;28;20183;-86
2022/01/10 12:26:19;;;;;;;14.10;6.43;;;-0.90;99.90;;;;;;5078023;28;20275;-84
2022/01/10 12:28:50;;;;;;;19.63;8.30;;;-0.80;99.90;;;;;;5078578;28;20192;-84
2022/01/10 12:31:17;;;;;;;15.90;7.53;;;;;;;;;;5078022;28;20535;-86
2022/01/10 12:33:43;;;;;;;17.93;7.73;;;;;;;;;;5078081;28;20230;-85
2022/01/10 12:36:09;;;;;;;16.37;7.90;;;;;;;;;;5077809;28;20190;-84
2022/01/10 12:38:36;;;;;;;23.63;8.13;;;;;;;;;;5095259;28;20210;-84
2022/01/10 12:41:02;;;;;;;15.63;9.07;;;;;;;;;;5095393;28;20177;-85
2022/01/10 12:43:28;;;;;;;12.27;7.20;;;;;;;;;;5095575;28;20248;-84
2022/01/10 12:45:54;;;;;;;15.17;8.60;;;;;;;;;;5098684;28;20645;-86
2022/01/10 12:48:24;;;;;;;18.90;8.83;;;-0.60;99.90;;;;;;5115602;28;20180;-84
2022/01/10 12:50:52;;;;;;;20.53;10.07;;;;;;;;;;5097455;28;20174;-84
2022/01/10 12:53:18;;;;;;;14.80;7.93;;;;;;;;;;5097501;28;20188;-84
2022/01/10 12:55:44;;;;;;;15.23;8.53;;;;;;;;;;5098268;28;20183;-84
2022/01/10 12:58:10;;;;;;;21.73;9.50;;;;;;;;;;5115720;28;20238;-86
2022/01/10 13:00:36;;;;;;;17.50;9.13;;;-0.40;99.90;;;;;;5080124;28;20241;-84
2022/01/10 13:03:03;;;;;;;17.87;9.63;;;-0.60;99.90;;;;;;5083312;28;20179;-84
2022/01/10 13:05:29;;;;;;;14.63;7.10;;;;;;;;;;5115700;28;20185;-85
2022/01/10 13:07:56;;;;;;;13.87;6.73;;;;;;;;;;5097726;28;20190;-85
2022/01/10 13:10:26;;;;;;;14.87;6.60;;;;;;;;;;5115977;28;20181;-85
2022/01/10 13:13:01;;;;;;;13.13;5.70;;;-0.70;99.90;;;;;;5113483;28;20689;-85
2022/01/10 13:15:35;;;;;;;11.73;6.23;;;-0.60;99.90;;;;;;5078425;28;20271;-85
2022/01/10 13:18:03;;;;;;;17.83;9.07;;;-0.70;99.90;;;;;;5077212;28;20327;-85
2022/01/10 13:20:32;;;;;;;29.73;12.00;;;-0.70;99.90;;;;;;5077650;28;20188;-86
2022/01/10 13:23:09;;;;;;;203.13;49.80;;;-0.70;99.90;;;;;;5095595;28;20638;-86
2022/01/10 13:25:37;;;;;;;58.83;18.93;;;-0.70;99.90;;;;;;5077300;28;20319;-85
2022/01/10 13:28:07;;;;;;;129.63;38.70;;;-0.60;99.90;;;;;;5101975;28;20210;-85
2022/01/10 13:30:33;;;;;;;130.70;36.50;;;;;;;;;;5097085;28;20174;-86
2022/01/10 13:33:04;;;;;;;103.00;30.23;;;-0.60;99.90;;;;;;5097414;28;20178;-86
2022/01/10 13:35:31;;;;;;;103.30;34.77;;;-0.60;99.90;;;;;;5115324;28;20529;-86
2022/01/10 13:38:12;;;;;;;85.20;28.63;;;-0.60;99.90;;;;;;5096621;28;20206;-85
2022/01/10 13:40:41;;;;;;;85.13;30.27;;;;;;;;;;5115634;28;20164;-85
2022/01/10 13:43:10;;;;;;;34.23;15.83;;;-0.60;99.90;;;;;;5102923;28;20170;-85
2022/01/10 13:45:45;;;;;;;18.40;8.43;;;-0.60;99.90;;;;;;5098151;28;20641;-86
2022/01/10 13:48:19;;;;;;;30.03;14.50;;;-0.60;99.90;;;;;;5096802;28;20328;-85
2022/01/10 13:50:53;;;;;;;26.73;13.40;;;;;;;;;;5088062;28;20193;-85
2022/01/10 13:53:47;;;;;;;43.93;14.83;;;-0.60;99.90;;;;;;5096339;28;20181;-88
2022/01/10 13:56:32;;;;;;;24.63;11.87;;;-0.60;99.90;;;;;;5081667;28;20174;-86
2022/01/10 13:58:58;;;;;;;41.93;14.17;;;;;;;;;;5080163;28;20253;-86
2022/01/10 14:01:45;;;;;;;42.70;14.07;;;-0.50;99.90;;;;;;5076395;28;20504;-85
2022/01/10 14:04:26;;;;;;;24.80;10.33;;;-0.30;99.90;;;;;;5076800;28;20176;-88
2022/01/10 14:06:53;;;;;;;33.00;12.30;;;;;;;;;;5076124;28;20525;-87
2022/01/10 14:12:41;;;;;;;186.10;57.17;;;-0.60;99.90;;;;;;5094191;28;20212;-84
2022/01/10 14:15:08;;;;;;;105.47;30.17;;;;;;;;;;5043422;28;20175;-86
2022/01/10 14:17:34;;;;;;;41.40;15.53;;;;;;;;;;5075747;28;20232;-85
2022/01/10 14:20:00;;;;;;;30.60;12.90;;;;;;;;;;5075647;28;20187;-85
2022/01/10 14:22:26;;;;;;;38.60;12.93;;;;;;;;;;5075699;28;20239;-85
2022/01/10 14:24:52;;;;;;;48.17;16.33;;;;;;;;;;5093851;28;20180;-85
2022/01/10 14:27:18;;;;;;;64.73;21.00;;;;;;;;;;5076773;28;20496;-88
2022/01/10 14:29:44;;;;;;;60.77;18.10;;;;;;;;;;5096476;28;20516;-86
2022/01/10 14:32:11;;;;;;;32.10;13.70;;;;;;;;;;5075315;28;20180;-87
2022/01/10 14:34:37;;;;;;;22.57;10.40;;;;;;;;;;5093629;28;20173;-85
2022/01/10 14:37:03;;;;;;;57.80;21.10;;;-0.70;99.90;;;;;;5075669;28;20191;-86
2022/01/10 14:39:29;;;;;;;74.37;28.60;;;;;;;;;;5058470;28;20215;-85
2022/01/10 14:41:57;;;;;;;52.03;19.97;;;;;;;;;;5093295;28;20179;-85
2022/01/10 14:44:23;;;;;;;70.80;24.20;;;;;;;;;;5093428;28;20186;-86
2022/01/10 14:46:49;;;;;;;115.37;36.70;;;;;;;;;;5113788;28;20258;-85
2022/01/10 14:49:15;;;;;;;50.33;19.73;;;;;;;;;;5095964;28;20267;-85
2022/01/10 14:51:41;;;;;;;65.90;21.23;;;;;;;;;;5095422;28;20545;-85
2022/01/10 14:54:07;;;;;;;39.13;16.20;;;;;;;;;;5114032;28;20177;-85
2022/01/10 14:56:34;;;;;;;29.37;11.93;;;;;;;;;;5096162;28;20641;-85
2022/01/10 14:59:03;;;;;;;98.20;28.60;;;;;;;;;;5095421;28;20266;-85
2022/01/10 15:01:30;;;;;;;148.30;42.37;;;;;;;;;;5095237;28;20190;-85
2022/01/10 15:03:56;;;;;;;116.60;31.80;;;;;;;;;;5113260;28;20265;-85
2022/01/10 15:06:23;;;;;;;43.37;16.80;;;-0.60;99.90;;;;;;5089507;28;20214;-85
2022/01/10 15:08:49;;;;;;;61.77;19.90;;;;;;;;;;5078004;28;20603;-84
2022/01/10 15:11:17;;;;;;;47.07;17.77;;;-0.60;99.90;;;;;;5078612;28;20212;-85
2022/01/10 15:13:44;;;;;;;75.73;24.47;;;;;;;;;;5095476;28;20226;-85
2022/01/10 15:16:14;;;;;;;54.37;20.87;;;-0.60;99.90;;;;;;5113475;28;20205;-84
2022/01/10 15:18:42;;;;;;;65.57;23.40;;;-0.60;99.90;;;;;;5113629;28;20205;-86
2022/01/10 15:21:08;;;;;;;87.33;28.83;;;;;;;;;;5099324;28;20616;-87
2022/01/10 15:23:35;;;;;;;55.97;20.40;;;;;;;;;;5098820;28;20276;-85
2022/01/10 15:26:05;;;;;;;25.47;12.63;;;-0.60;99.90;;;;;;5083041;28;20181;-85
2022/01/10 15:28:31;;;;;;;31.53;15.47;;;;;;;;;;5082403;28;20180;-85
2022/01/10 15:30:57;;;;;;;30.10;12.77;;;;;;;;;;5082237;28;20217;-85
2022/01/10 15:33:23;;;;;;;55.73;20.77;;;;;;;;;;5096217;28;20186;-84
2022/01/10 15:35:50;;;;;;;71.23;25.37;;;;;;;;;;5109946;28;20186;-83
2022/01/10 15:38:17;;;;;;;94.63;32.67;;;;;;;;;;5116062;28;20254;-85
2022/01/10 15:40:43;;;;;;;57.13;23.60;;;;;;;;;;5116751;28;20210;-85
2022/01/10 15:43:09;;;;;;;53.87;22.47;;;;;;;;;;5116825;28;20200;-83
2022/01/10 15:45:35;;;;;;;64.83;26.60;;;;;;;;;;5081846;28;20621;-84
2022/01/10 15:48:01;;;;;;;45.87;19.53;;;;;;;;;;5098870;28;20195;-87
2022/01/10 15:50:27;;;;;;;32.87;16.10;;;;;;;;;;5098717;28;20186;-84
2022/01/10 15:52:53;;;;;;;35.97;14.73;;;;;;;;;;5098701;28;20615;-84
2022/01/10 15:55:19;;;;;;;39.40;17.70;;;;;;;;;;5098688;28;20251;-84
2022/01/10 15:57:45;;;;;;;38.97;17.10;;;;;;;;;;5098681;28;20242;-84
2022/01/10 16:00:12;;;;;;;33.37;16.50;;;-0.30;99.90;;;;;;5116662;28;20641;-83
2022/01/10 16:02:39;;;;;;;46.67;17.60;;;;;;;;;;5081423;28;20192;-84
2022/01/10 16:05:06;;;;;;;29.27;12.43;;;-0.50;99.90;;;;;;5097708;28;20214;-84
2022/01/10 16:07:32;;;;;;;41.00;15.40;;;;;;;;;;5092759;28;20550;-85
2022/01/10 16:09:59;;;;;;;32.57;13.80;;;;;;;;;;5104591;28;20269;-83
2022/01/10 16:12:26;;;;;;;44.90;18.27;;;-0.50;99.90;;;;;;5061681;28;20265;-84
2022/01/10 16:14:52;;;;;;;44.53;18.30;;;;;;;;;;5098490;28;20185;-84
2022/01/10 16:17:18;;;;;;;54.47;21.43;;;;;;;;;;5104704;28;20549;-83
2022/01/10 16:19:45;;;;;;;61.70;19.60;;;;;;;;;;5092579;28;20315;-83
2022/01/10 16:22:11;;;;;;;68.83;21.63;;;;;;;;;;5116619;28;20181;-84
2022/01/10 16:24:38;;;;;;;48.57;20.03;;;;;;;;;;5078744;28;20189;-84
2022/01/10 16:27:04;;;;;;;41.30;16.80;;;-0.90;99.90;;;;;;5098495;28;20186;-85
2022/01/10 16:29:31;;;;;;;39.97;15.37;;;;;;;;;;5082516;28;20192;-83
2022/01/10 16:31:57;;;;;;;30.33;12.90;;;;;;;;;;5088059;28;20654;-86
2022/01/10 16:34:24;;;;;;;43.37;15.90;;;;;;;;;;5087010;28;20178;-86
2022/01/10 16:36:54;;;;;;;27.93;12.30;;;-0.70;99.90;;;;;;5085798;28;20189;-84
2022/01/10 16:39:20;;;;;;;30.60;13.30;;;;;;;;;;5077114;28;20233;-85
2022/01/10 16:41:46;;;;;;;28.33;13.23;;;;;;;;;;5078625;28;20644;-86
2022/01/10 16:44:12;;;;;;;52.23;22.27;;;;;;;;;;5087261;28;20174;-84
2022/01/10 16:46:38;;;;;;;46.20;19.67;;;;;;;;;;5076990;28;20182;-86
2022/01/10 16:49:04;;;;;;;28.03;13.90;;;;;;;;;;5076477;28;20195;-85
2022/01/10 16:51:30;;;;;;;63.57;25.17;;;;;;;;;;5076480;28;20210;-83
2022/01/10 16:53:57;;;;;;;62.27;23.43;;;;;;;;;;5076542;28;20184;-83
2022/01/10 16:56:23;;;;;;;54.30;25.50;;;;;;;;;;5077223;28;20224;-83
2022/01/10 16:58:49;;;;;;;48.80;19.50;;;;;;;;;;5095061;28;20283;-82
2022/01/10 17:01:15;;;;;;;48.83;21.33;;;;;;;;;;5094834;28;20657;-82
2022/01/10 17:03:41;;;;;;;44.80;19.90;;;;;;;;;;5076349;28;20624;-82
2022/01/10 17:06:09;;;;;;;44.60;18.20;;;;;;;;;;5076555;28;20215;-83